Weather at Hospital Heliport

Public forecast

Using degrees Celsius for public forecast. Weather courtesy of forecast.io.

Closest aviation weather report (METAR) to Hospital Heliport

Closest report is Václav Havel Airport Prague, 20.9 nm (38.6 km) E. Retrieved 2020/11/25 07:30 UTC (6 minutes ago):

LKPR 250730Z 18006KT 3300 BR OVC003 M01/M01 Q1023 NOSIG

Closest aviation forecast (TAF) to Hospital Heliport

Closest forecast is Václav Havel Airport Prague, 20.9 nm (38.6 km) E. Retrieved 2020/11/25 06:16 UTC (1 hour ago):

TAF LKPR 250500Z 2506/2612 15006KT 2000 BR OVC002 TEMPO 2506/2508 1200 BR OVC001 PROB30 TEMPO 2506/2508 0500 FZFG BECMG 2508/2510 4000 BR BKN005 TEMPO 2510/2516 7000 SCT005 BECMG 2516/2518 0700 FZFG OVC002 TEMPO 2518/2607 VRB02KT 0400 FZFG VV001 BECMG 2608/2610 3500 BR BKN003 TEMPO 2610/2612 7000 BKN005